createdAt,value
2023-03-02T00:01:26.534Z,85.40
2023-03-02T00:03:54.247Z,85.20
2023-03-02T00:06:21.289Z,85.10
2023-03-02T00:08:48.287Z,84.60
2023-03-02T00:11:15.689Z,84.30
2023-03-02T00:13:43.722Z,84.10
2023-03-02T00:16:10.936Z,83.90
2023-03-02T00:18:37.882Z,83.70
2023-03-02T00:21:04.884Z,83.10
2023-03-02T00:23:31.766Z,82.80
2023-03-02T00:25:58.715Z,82.30
2023-03-02T00:28:25.829Z,82.10
2023-03-02T00:30:52.729Z,81.80
2023-03-02T00:33:20.956Z,81.60
2023-03-02T00:35:47.901Z,81.30
2023-03-02T00:38:14.819Z,81.10
2023-03-02T00:40:49.459Z,80.70
2023-03-02T00:43:17.034Z,80.50
2023-03-02T00:45:44.453Z,80.30
2023-03-02T00:48:11.393Z,80.00
2023-03-02T00:50:41.088Z,80.00
2023-03-02T00:53:09.356Z,79.80
2023-03-02T00:55:37.639Z,79.20
2023-03-02T00:58:05.241Z,79.20
2023-03-02T01:00:34.281Z,79.20
2023-03-02T01:03:04.698Z,79.50
2023-03-02T01:05:35.625Z,79.70
2023-03-02T01:08:02.566Z,79.70
2023-03-02T01:10:32.072Z,79.70
2023-03-02T01:12:59.027Z,79.70
2023-03-02T01:15:26.380Z,79.60
2023-03-02T01:17:54.132Z,79.20
2023-03-02T01:20:21.153Z,79.00
2023-03-02T01:22:48.504Z,78.80
2023-03-02T01:25:15.730Z,78.50
2023-03-02T01:27:42.871Z,78.50
2023-03-02T01:30:10.502Z,78.60
2023-03-02T01:32:37.538Z,78.70
2023-03-02T01:35:05.025Z,78.50
2023-03-02T01:37:32.024Z,78.40
2023-03-02T01:39:58.917Z,78.40
2023-03-02T01:42:25.907Z,78.40
2023-03-02T01:44:57.140Z,78.60
2023-03-02T01:47:39.103Z,78.80
2023-03-02T01:50:19.558Z,78.90
2023-03-02T01:52:47.490Z,78.90
2023-03-02T01:55:20.015Z,78.30
2023-03-02T01:57:51.414Z,78.20
2023-03-02T02:00:25.575Z,78.00
2023-03-02T02:02:54.270Z,78.80
2023-03-02T02:05:25.563Z,78.10
2023-03-02T02:07:52.968Z,78.00
2023-03-02T02:10:20.255Z,77.90
2023-03-02T02:12:47.254Z,77.90
2023-03-02T02:15:14.242Z,77.80
2023-03-02T02:17:42.267Z,77.70
2023-03-02T02:20:34.024Z,77.60
2023-03-02T02:23:18.695Z,77.30
2023-03-02T02:26:01.951Z,77.20
2023-03-02T02:28:39.941Z,77.50
2023-03-02T02:31:36.576Z,77.80
2023-03-02T02:34:16.047Z,77.90
2023-03-02T02:36:47.485Z,77.40
2023-03-02T02:39:29.104Z,77.40
2023-03-02T02:42:00.591Z,77.40
2023-03-02T02:44:28.746Z,77.60
2023-03-02T02:46:55.782Z,77.80
2023-03-02T02:49:28.683Z,78.00
2023-03-02T02:51:55.824Z,78.40
2023-03-02T02:54:23.637Z,78.70
2023-03-02T02:56:52.561Z,79.40
2023-03-02T02:59:29.601Z,80.20
2023-03-02T03:02:00.279Z,80.90
2023-03-02T03:04:30.620Z,81.30
2023-03-02T03:07:00.188Z,81.60
2023-03-02T03:09:28.231Z,82.10
2023-03-02T03:12:01.535Z,82.60
2023-03-02T03:14:36.510Z,82.80
2023-03-02T03:17:11.910Z,83.20
2023-03-02T03:19:44.357Z,83.40
2023-03-02T03:22:14.648Z,83.60
2023-03-02T03:24:43.420Z,84.00
2023-03-02T03:27:12.889Z,84.20
2023-03-02T03:29:43.616Z,84.40
2023-03-02T03:32:13.894Z,84.70
2023-03-02T03:34:41.276Z,84.90
2023-03-02T03:37:42.044Z,85.00
2023-03-02T03:40:10.853Z,85.10
2023-03-02T03:42:41.141Z,85.30
2023-03-02T03:45:09.365Z,85.60
2023-03-02T03:47:37.946Z,85.90
2023-03-02T03:50:06.911Z,86.10
2023-03-02T03:52:34.630Z,86.20
2023-03-02T03:55:13.827Z,86.40
2023-03-02T03:57:42.550Z,86.70
2023-03-02T04:00:15.039Z,86.90
2023-03-02T04:02:46.097Z,87.20
2023-03-02T04:05:14.362Z,87.40
2023-03-02T04:07:41.634Z,87.60
2023-03-02T04:10:10.040Z,87.80
2023-03-02T04:12:40.862Z,88.10
2023-03-02T04:15:13.084Z,88.30
2023-03-02T04:17:40.059Z,88.60
2023-03-02T04:20:08.796Z,88.70
2023-03-02T04:22:37.369Z,88.90
2023-03-02T04:25:05.232Z,89.00
2023-03-02T04:27:32.916Z,89.00
2023-03-02T04:30:00.140Z,89.00
2023-03-02T04:32:27.282Z,89.10
2023-03-02T04:34:55.985Z,89.20
2023-03-02T04:37:23.956Z,89.30
2023-03-02T04:39:52.799Z,89.40
2023-03-02T04:42:20.451Z,89.40
2023-03-02T04:44:48.093Z,89.60
2023-03-02T04:47:15.329Z,89.60
2023-03-02T04:49:42.445Z,89.70
2023-03-02T04:52:09.642Z,89.60
2023-03-02T04:54:36.780Z,89.60
2023-03-02T04:57:04.056Z,89.70
2023-03-02T04:59:31.114Z,89.80
2023-03-02T05:02:00.553Z,89.90
2023-03-02T05:04:28.854Z,90.00
2023-03-02T05:06:56.684Z,90.10
2023-03-02T05:09:27.507Z,90.10
2023-03-02T05:11:56.102Z,90.20
2023-03-02T05:14:23.940Z,90.20
2023-03-02T05:16:51.411Z,90.30
2023-03-02T05:19:19.267Z,90.30
2023-03-02T05:21:46.549Z,90.30
2023-03-02T05:24:13.900Z,90.40
2023-03-02T05:26:41.512Z,90.40
2023-03-02T05:29:08.830Z,90.40
2023-03-02T05:31:40.779Z,90.50
2023-03-02T05:34:10.715Z,90.50
2023-03-02T05:36:38.587Z,90.40
2023-03-02T05:39:06.858Z,90.50
2023-03-02T05:41:34.395Z,90.50
2023-03-02T05:44:01.740Z,90.50
2023-03-02T05:46:28.807Z,90.50
2023-03-02T05:48:55.832Z,90.40
2023-03-02T05:51:22.865Z,90.40
2023-03-02T05:53:49.825Z,90.40
2023-03-02T05:56:16.779Z,90.40
2023-03-02T05:58:43.717Z,90.40
2023-03-02T06:01:14.890Z,90.40
2023-03-02T06:03:43.270Z,90.50
2023-03-02T06:06:14.122Z,90.50
2023-03-02T06:08:42.813Z,90.60
2023-03-02T06:11:10.205Z,90.70
2023-03-02T06:13:37.713Z,90.70
2023-03-02T06:16:05.503Z,90.80
2023-03-02T06:18:32.590Z,90.80
2023-03-02T06:21:00.037Z,90.90
2023-03-02T06:23:27.007Z,90.90
2023-03-02T06:25:54.088Z,90.90
2023-03-02T06:28:21.942Z,90.90
2023-03-02T06:30:49.565Z,90.80
2023-03-02T06:33:18.175Z,90.80
2023-03-02T06:35:45.805Z,90.70
2023-03-02T06:38:13.111Z,90.60
2023-03-02T06:40:40.079Z,90.50
2023-03-02T06:43:07.080Z,90.40
2023-03-02T06:45:34.263Z,90.70
2023-03-02T06:48:02.065Z,90.30
2023-03-02T06:50:29.093Z,90.30
2023-03-02T06:52:56.270Z,90.30
2023-03-02T06:55:23.432Z,90.20
2023-03-02T06:57:50.782Z,90.20
2023-03-02T07:00:25.880Z,90.10
2023-03-02T07:02:53.831Z,90.00
2023-03-02T07:05:21.598Z,90.00
2023-03-02T07:07:48.502Z,89.70
2023-03-02T07:10:15.572Z,89.70
2023-03-02T07:12:42.770Z,89.80
2023-03-02T07:15:12.339Z,90.00
2023-03-02T07:17:40.488Z,90.00
2023-03-02T07:20:08.147Z,89.90
2023-03-02T07:22:35.106Z,89.50
2023-03-02T07:25:02.048Z,89.00
2023-03-02T07:27:29.044Z,88.50
2023-03-02T07:29:55.988Z,88.00
2023-03-02T07:32:23.023Z,87.50
2023-03-02T07:34:50.052Z,86.90
2023-03-02T07:37:17.034Z,86.50
2023-03-02T07:39:44.169Z,86.20
2023-03-02T07:42:12.694Z,86.00
2023-03-02T07:44:42.146Z,85.90
2023-03-02T07:47:09.127Z,85.90
2023-03-02T07:49:36.102Z,86.00
2023-03-02T07:52:04.196Z,85.90
2023-03-02T07:54:31.571Z,85.80
2023-03-02T07:56:59.362Z,85.80
2023-03-02T07:59:28.383Z,85.70
2023-03-02T08:01:56.398Z,85.50
2023-03-02T08:04:24.822Z,85.20
2023-03-02T08:06:51.998Z,84.80
2023-03-02T08:09:19.138Z,84.40
2023-03-02T08:11:47.776Z,84.00
2023-03-02T08:14:14.946Z,83.50
2023-03-02T08:16:42.223Z,83.00
2023-03-02T08:19:09.231Z,82.20
2023-03-02T08:21:36.546Z,81.90
2023-03-02T08:24:03.769Z,81.80
2023-03-02T08:26:30.817Z,81.70
2023-03-02T08:28:59.324Z,81.60
2023-03-02T08:31:27.203Z,81.80
2023-03-02T08:33:54.447Z,80.00
2023-03-02T08:36:21.889Z,78.40
2023-03-02T08:38:49.768Z,77.00
2023-03-02T08:41:20.073Z,76.00
2023-03-02T08:43:47.758Z,75.10
2023-03-02T08:46:17.046Z,75.00
2023-03-02T08:48:44.675Z,73.50
2023-03-02T08:51:21.136Z,72.90
2023-03-02T08:53:55.047Z,69.20
2023-03-02T08:56:34.395Z,65.20
2023-03-02T08:59:07.393Z,60.00
2023-03-02T09:01:36.532Z,59.40
2023-03-02T09:04:05.590Z,59.20
2023-03-02T09:06:35.476Z,59.10
2023-03-02T09:09:03.037Z,59.20
2023-03-02T09:11:29.995Z,59.40
2023-03-02T09:13:57.083Z,59.60
2023-03-02T09:16:25.813Z,59.70
2023-03-02T09:18:53.461Z,59.90
2023-03-02T09:21:20.572Z,59.80
2023-03-02T09:23:47.571Z,60.30
2023-03-02T09:26:14.483Z,60.20
2023-03-02T09:28:41.414Z,59.60
2023-03-02T09:31:09.367Z,58.10
2023-03-02T09:33:36.650Z,55.70
2023-03-02T09:36:14.298Z,54.70
2023-03-02T09:38:41.196Z,55.70
2023-03-02T09:41:28.458Z,57.00
2023-03-02T09:44:16.903Z,58.40
2023-03-02T09:47:02.969Z,59.90
2023-03-02T09:49:49.130Z,61.80
2023-03-02T09:52:35.788Z,62.90
2023-03-02T09:55:22.326Z,64.20
2023-03-02T09:57:50.392Z,65.20
2023-03-02T10:00:27.999Z,65.90
2023-03-02T10:03:11.393Z,66.70
2023-03-02T10:05:48.571Z,67.60
2023-03-02T10:08:23.837Z,67.50
2023-03-02T10:11:05.824Z,66.40
2023-03-02T10:13:52.388Z,66.50
2023-03-02T10:16:48.458Z,67.00
2023-03-02T10:19:18.424Z,67.50
2023-03-02T10:21:56.220Z,67.40
2023-03-02T10:24:40.199Z,68.00
2023-03-02T10:27:13.157Z,68.20
2023-03-02T10:29:58.843Z,68.40
2023-03-02T10:32:31.311Z,68.60
2023-03-02T10:35:01.229Z,69.30
2023-03-02T10:37:31.557Z,69.60
2023-03-02T10:39:59.080Z,69.80
2023-03-02T10:42:37.923Z,69.90
2023-03-02T10:45:25.123Z,69.90
2023-03-02T10:48:02.108Z,69.90
2023-03-02T10:50:30.665Z,70.40
2023-03-02T10:53:01.069Z,70.00
2023-03-02T10:55:28.857Z,69.80
2023-03-02T10:58:03.962Z,68.60
2023-03-02T11:00:32.576Z,68.20
2023-03-02T11:03:02.571Z,67.80
2023-03-02T11:05:38.020Z,66.90
2023-03-02T11:08:21.832Z,66.80
2023-03-02T11:11:01.473Z,66.50
2023-03-02T11:13:37.075Z,66.50
2023-03-02T11:16:22.158Z,66.20
2023-03-02T11:18:52.833Z,66.30
2023-03-02T11:21:35.793Z,65.90
2023-03-02T11:24:37.899Z,65.80
2023-03-02T11:27:22.625Z,66.00
2023-03-02T11:29:58.500Z,65.60
2023-03-02T11:32:34.176Z,65.70
2023-03-02T11:35:10.026Z,65.70
2023-03-02T11:37:49.579Z,65.60
2023-03-02T11:40:26.405Z,65.50
2023-03-02T11:42:56.716Z,65.70
2023-03-02T11:45:31.331Z,65.90
2023-03-02T11:48:22.303Z,65.80
2023-03-02T11:50:57.997Z,65.40
2023-03-02T11:53:39.465Z,65.40
2023-03-02T11:56:06.723Z,65.80
2023-03-02T11:58:34.660Z,66.20
2023-03-02T12:01:03.128Z,66.50
2023-03-02T12:03:32.970Z,66.50
2023-03-02T12:06:27.729Z,65.50
2023-03-02T12:09:07.900Z,65.20
2023-03-02T12:11:38.830Z,64.80
2023-03-02T12:14:35.276Z,64.10
2023-03-02T12:17:18.167Z,63.00
2023-03-02T12:19:46.102Z,63.10
2023-03-02T12:22:15.245Z,62.40
2023-03-02T12:24:45.118Z,62.00
2023-03-02T12:27:25.543Z,61.40
2023-03-02T12:30:23.565Z,60.00
2023-03-02T12:33:11.590Z,58.70
2023-03-02T12:35:39.213Z,58.80
2023-03-02T12:38:24.317Z,59.70
2023-03-02T12:41:05.934Z,59.60
2023-03-02T12:43:37.734Z,60.10
2023-03-02T12:46:27.860Z,60.10
2023-03-02T12:49:13.409Z,60.00
2023-03-02T12:52:01.207Z,59.70
2023-03-02T12:54:33.843Z,60.10
2023-03-02T12:57:17.576Z,60.20
2023-03-02T12:59:54.965Z,59.80
2023-03-02T13:02:28.584Z,59.50
2023-03-02T13:05:04.634Z,59.60
2023-03-02T13:07:58.603Z,59.60
2023-03-02T13:10:39.234Z,59.40
2023-03-02T13:13:27.777Z,59.70
2023-03-02T13:16:00.031Z,59.40
2023-03-02T13:18:35.523Z,59.50
2023-03-02T13:21:04.562Z,59.70
2023-03-02T13:23:32.959Z,59.80
2023-03-02T13:26:03.616Z,60.10
2023-03-02T13:28:36.341Z,60.30
2023-03-02T13:31:05.233Z,60.20
2023-03-02T13:33:35.585Z,60.40
2023-03-02T13:36:04.128Z,60.60
2023-03-02T13:38:37.643Z,60.90
2023-03-02T13:41:05.097Z,60.80
2023-03-02T13:43:40.824Z,60.90
2023-03-02T13:46:13.891Z,61.00
2023-03-02T13:48:40.807Z,61.70
2023-03-02T13:51:19.414Z,61.00
2023-03-02T13:54:02.505Z,61.00
2023-03-02T13:56:38.138Z,61.20
2023-03-02T13:59:05.600Z,61.60
2023-03-02T14:01:32.658Z,61.90
2023-03-02T14:04:01.517Z,62.10
2023-03-02T14:06:28.517Z,62.40
2023-03-02T14:08:55.490Z,62.90
2023-03-02T14:11:22.408Z,63.40
2023-03-02T14:13:55.471Z,63.60
2023-03-02T14:16:24.152Z,63.80
2023-03-02T14:18:56.238Z,64.00
2023-03-02T14:21:25.691Z,63.70
2023-03-02T14:23:54.216Z,63.60
2023-03-02T14:26:28.859Z,63.60
2023-03-02T14:29:05.002Z,63.50
2023-03-02T14:31:32.898Z,63.30
2023-03-02T14:33:59.937Z,63.30
2023-03-02T14:36:32.011Z,63.50
2023-03-02T14:39:02.743Z,63.30
2023-03-02T14:41:30.689Z,63.40
2023-03-02T14:43:58.454Z,63.60
2023-03-02T14:46:25.459Z,63.80
2023-03-02T14:48:52.562Z,63.80
2023-03-02T14:51:24.119Z,63.80
2023-03-02T14:53:53.878Z,63.50
2023-03-02T14:56:22.975Z,63.50
2023-03-02T14:58:53.441Z,63.50
2023-03-02T15:01:21.594Z,63.50
2023-03-02T15:03:48.491Z,63.60
2023-03-02T15:06:28.645Z,63.80
2023-03-02T15:08:57.671Z,64.00
2023-03-02T15:11:25.329Z,64.10
2023-03-02T15:13:52.734Z,64.10
2023-03-02T15:16:20.106Z,64.10
2023-03-02T15:18:50.015Z,63.70
2023-03-02T15:21:21.198Z,63.40
2023-03-02T15:23:48.305Z,63.20
2023-03-02T15:26:15.705Z,62.90
2023-03-02T15:28:42.979Z,63.10
2023-03-02T15:31:14.719Z,63.30
2023-03-02T15:33:45.196Z,63.60
2023-03-02T15:36:13.695Z,63.50
2023-03-02T15:38:40.986Z,63.70
2023-03-02T15:41:13.656Z,63.90
2023-03-02T15:43:40.844Z,64.30
2023-03-02T15:46:09.456Z,64.30
2023-03-02T15:48:37.814Z,64.20
2023-03-02T15:51:07.469Z,64.20
2023-03-02T15:53:38.804Z,64.60
2023-03-02T15:56:14.958Z,64.60
2023-03-02T15:58:47.085Z,64.80
2023-03-02T16:01:16.773Z,64.80
2023-03-02T16:03:45.440Z,65.00
2023-03-02T16:06:13.416Z,65.20
2023-03-02T16:08:40.474Z,65.30
2023-03-02T16:11:10.121Z,65.70
2023-03-02T16:13:37.773Z,65.80
2023-03-02T16:16:06.110Z,66.60
2023-03-02T16:18:33.167Z,66.80
2023-03-02T16:21:02.690Z,67.00
2023-03-02T16:23:29.586Z,67.30
2023-03-02T16:26:07.388Z,67.60
2023-03-02T16:28:34.645Z,68.00
2023-03-02T16:31:06.400Z,68.30
2023-03-02T16:33:33.983Z,68.60
2023-03-02T16:36:00.975Z,68.50
2023-03-02T16:38:27.934Z,68.50
2023-03-02T16:40:57.059Z,68.90
2023-03-02T16:43:24.518Z,69.00
2023-03-02T16:45:52.468Z,69.20
2023-03-02T16:48:19.464Z,69.40
2023-03-02T16:50:53.961Z,69.50
2023-03-02T16:53:20.978Z,69.80
2023-03-02T16:55:49.443Z,70.00
2023-03-02T16:58:16.773Z,70.30
2023-03-02T17:00:43.732Z,70.60
2023-03-02T17:03:10.627Z,71.00
2023-03-02T17:05:37.690Z,71.00
2023-03-02T17:08:06.364Z,71.40
2023-03-02T17:10:33.369Z,71.80
2023-03-02T17:13:00.284Z,72.30
2023-03-02T17:15:27.525Z,72.60
2023-03-02T17:17:54.637Z,73.20
2023-03-02T17:20:21.952Z,73.70
2023-03-02T17:22:48.918Z,74.50
2023-03-02T17:25:18.071Z,75.10
2023-03-02T17:27:45.720Z,75.80
2023-03-02T17:30:14.800Z,76.20
2023-03-02T17:32:42.467Z,76.80
2023-03-02T17:35:12.865Z,77.30
2023-03-02T17:37:40.364Z,77.90
2023-03-02T17:40:08.543Z,78.30
2023-03-02T17:42:35.452Z,78.70
2023-03-02T17:45:02.450Z,78.90
2023-03-02T17:47:29.449Z,79.10
2023-03-02T17:49:58.346Z,79.40
2023-03-02T17:52:25.427Z,79.60
2023-03-02T17:54:54.081Z,79.50
2023-03-02T17:57:22.671Z,79.70
2023-03-02T17:59:52.844Z,79.80
2023-03-02T18:02:19.847Z,79.80
2023-03-02T18:04:46.824Z,79.80
2023-03-02T18:07:13.739Z,79.90
2023-03-02T18:09:40.762Z,79.90
2023-03-02T18:12:08.228Z,79.90
2023-03-02T18:14:36.350Z,80.00
2023-03-02T18:17:05.010Z,80.10
2023-03-02T18:19:32.217Z,80.00
2023-03-02T18:21:59.341Z,80.00
2023-03-02T18:24:26.281Z,80.00
2023-03-02T18:26:53.270Z,80.00
2023-03-02T18:29:20.945Z,79.90
2023-03-02T18:31:48.704Z,79.90
2023-03-02T18:34:15.761Z,79.90
2023-03-02T18:36:42.722Z,79.90
2023-03-02T18:39:09.626Z,79.90
2023-03-02T18:41:36.589Z,80.00
2023-03-02T18:44:03.586Z,80.10
2023-03-02T18:46:31.887Z,80.20
2023-03-02T18:49:00.567Z,80.40
2023-03-02T18:51:28.104Z,80.50
2023-03-02T18:53:55.786Z,80.70
2023-03-02T18:56:23.253Z,81.00
2023-03-02T18:58:51.451Z,81.10
2023-03-02T19:01:19.840Z,81.30
2023-03-02T19:03:46.841Z,81.50
2023-03-02T19:06:14.404Z,81.60
2023-03-02T19:08:41.402Z,81.70
2023-03-02T19:11:08.538Z,81.90
2023-03-02T19:13:35.693Z,82.10
2023-03-02T19:16:03.074Z,82.30
2023-03-02T19:18:30.966Z,82.60
2023-03-02T19:20:57.915Z,82.80
2023-03-02T19:23:25.222Z,83.00
2023-03-02T19:25:52.550Z,83.20
2023-03-02T19:28:21.612Z,83.50
2023-03-02T19:30:49.960Z,83.60
2023-03-02T19:33:17.427Z,83.80
2023-03-02T19:35:44.686Z,84.00
2023-03-02T19:38:12.565Z,84.10
2023-03-02T19:40:39.499Z,84.30
2023-03-02T19:43:06.796Z,84.40
2023-03-02T19:45:34.907Z,84.40
2023-03-02T19:48:03.362Z,84.50
2023-03-02T19:50:30.597Z,84.60
2023-03-02T19:52:58.437Z,84.70
2023-03-02T19:55:26.649Z,84.70
2023-03-02T19:58:00.244Z,84.90
2023-03-02T20:00:29.875Z,84.80
2023-03-02T20:02:57.678Z,85.00
2023-03-02T20:05:27.491Z,85.00
2023-03-02T20:07:55.344Z,85.10
2023-03-02T20:10:36.619Z,85.20
2023-03-02T20:13:05.033Z,85.40
2023-03-02T20:15:34.040Z,85.30
2023-03-02T20:18:02.749Z,85.30
2023-03-02T20:20:30.650Z,85.40
2023-03-02T20:22:58.834Z,85.50
2023-03-02T20:25:27.140Z,85.70
2023-03-02T20:27:54.901Z,85.80
2023-03-02T20:30:32.360Z,86.00
2023-03-02T20:33:00.674Z,86.10
2023-03-02T20:35:29.913Z,86.10
2023-03-02T20:38:00.276Z,86.20
2023-03-02T20:40:28.073Z,86.30
2023-03-02T20:42:55.166Z,86.40
2023-03-02T20:45:22.400Z,86.50
2023-03-02T20:47:49.727Z,86.60
2023-03-02T20:50:20.877Z,86.70
2023-03-02T20:52:47.888Z,86.80
2023-03-02T20:55:14.847Z,86.80
2023-03-02T20:57:41.819Z,86.80
2023-03-02T21:00:14.658Z,86.80
2023-03-02T21:02:42.492Z,86.80
2023-03-02T21:05:10.152Z,86.90
2023-03-02T21:07:37.566Z,87.00
2023-03-02T21:10:08.634Z,87.30
2023-03-02T21:12:35.630Z,87.50
2023-03-02T21:15:04.305Z,87.50
2023-03-02T21:17:31.546Z,87.70
2023-03-02T21:19:58.817Z,87.80
2023-03-02T21:22:25.768Z,87.60
2023-03-02T21:24:53.096Z,87.50
2023-03-02T21:27:20.758Z,87.40
2023-03-02T21:29:48.512Z,87.50
2023-03-02T21:32:16.135Z,87.50
2023-03-02T21:34:44.915Z,87.50
2023-03-02T21:37:11.958Z,88.30
2023-03-02T21:39:38.954Z,87.70
2023-03-02T21:42:06.079Z,87.70
2023-03-02T21:44:33.010Z,87.70
2023-03-02T21:46:59.936Z,87.70
2023-03-02T21:49:27.064Z,87.70
2023-03-02T21:51:54.167Z,87.70
2023-03-02T21:54:21.067Z,87.70
2023-03-02T21:56:48.008Z,87.70
2023-03-02T21:59:14.950Z,87.60
2023-03-02T22:01:42.002Z,87.60
2023-03-02T22:04:08.988Z,87.70
2023-03-02T22:06:37.762Z,87.70
2023-03-02T22:09:04.907Z,87.90
2023-03-02T22:11:36.693Z,88.00
2023-03-02T22:14:14.276Z,88.10
2023-03-02T22:16:43.038Z,88.20
2023-03-02T22:19:26.945Z,88.10
2023-03-02T22:21:55.862Z,88.10
2023-03-02T22:24:29.273Z,88.00
2023-03-02T22:26:59.261Z,88.20
2023-03-02T22:29:33.594Z,88.20
2023-03-02T22:32:21.814Z,88.20
2023-03-02T22:35:25.409Z,88.20
2023-03-02T22:38:01.379Z,88.20
2023-03-02T22:40:34.233Z,88.10
2023-03-02T22:43:34.235Z,88.10
2023-03-02T22:46:20.181Z,88.20
2023-03-02T22:48:49.760Z,88.30
2023-03-02T22:51:25.268Z,88.40
2023-03-02T22:53:57.967Z,88.70
2023-03-02T22:56:37.524Z,88.80
2023-03-02T22:59:17.923Z,88.90
2023-03-02T23:01:45.986Z,88.90
2023-03-02T23:04:40.615Z,89.00
2023-03-02T23:07:19.693Z,90.00
2023-03-02T23:09:46.939Z,89.20
2023-03-02T23:12:23.894Z,89.10
2023-03-02T23:14:55.746Z,89.00
2023-03-02T23:17:39.797Z,89.00
2023-03-02T23:20:08.453Z,89.10
2023-03-02T23:22:36.373Z,89.20
2023-03-02T23:25:03.664Z,89.10
2023-03-02T23:27:30.633Z,89.10
2023-03-02T23:29:57.707Z,89.20
2023-03-02T23:32:24.856Z,89.10
2023-03-02T23:34:52.346Z,88.90
2023-03-02T23:37:19.351Z,88.80
2023-03-02T23:39:46.370Z,88.70
2023-03-02T23:42:13.420Z,88.80
2023-03-02T23:44:40.428Z,88.70
2023-03-02T23:47:07.495Z,88.80
2023-03-02T23:49:34.437Z,88.90
2023-03-02T23:52:01.474Z,88.80
2023-03-02T23:54:28.420Z,88.70
2023-03-02T23:56:55.295Z,88.80
2023-03-02T23:59:22.246Z,88.80
